Blue Oak Ranch Reserve, California Weather observations

Data are for 10 minute period ending at time listed.
 Day   Time   Solar   Ave.   Ave.  Ave.  Vector  Max.   Baro.   Total    
  of    of     Rad.   Air    Rel.  Wind   Wind   Wind  Press.  Precip.   
Year   Day            Temp.  Hum.  Speed  Dir.   Gust                    
2014   (PST)  Kw/m2    F      %     mph   deg.    mph    mb.     in.     
-------------------------------------------------------------------------
 294   19:40   0.00   46.5    84    0.6   333     2.3   949.7    0.00 
 294   19:50   0.00   46.0    84    2.1   293     3.4   949.8    0.00 
 294   20:00   0.00   46.0    85    0.4    42     1.1   949.7    0.00 
 294   20:10   0.00   46.0    86    0.3   299     1.6   949.7    0.00 
 294   20:20   0.00   46.2    85    0.2   326     1.7   949.7    0.00 
 294   20:30   0.00   46.2    85    2.0   296     3.8   949.7    0.00 
 294   20:40   0.00   45.5    86    1.5   319     3.6   950.0    0.00 
 294   20:50   0.00   45.5    86    1.7    67     2.5   950.0    0.00 
 294   21:00   0.00   45.4    86    1.2   296     2.6   949.8    0.00 
 294   21:10   0.00   44.6    87    0.7   308     1.5   949.9    0.00 
 294   21:20   0.00   45.2    88    0.0   284     0.6   950.0    0.00 
 294   21:30   0.00   45.2    86    0.0   282     0.9   950.2    0.00 
 294   21:40   0.00   45.1    87    0.3    34     1.1   950.2    0.00 
 294   21:50   0.00   45.1    86    1.0    65     1.6   950.2    0.00 
 294   22:00   0.00   44.6    86    0.9   306     2.3   950.2    0.00 
 294   22:10   0.00   44.6    88    0.4   295     1.8   950.1    0.00 
 294   22:20   0.00   44.9    86    1.7   291     2.9   950.2    0.00 
 294   22:30   0.00   44.7    88    0.2    59     1.0   950.1    0.00 
 294   22:40   0.00   44.6    87    0.8    64     1.9   950.1    0.00 
 294   22:50   0.00   44.6    88    0.8   292     2.6   950.1    0.00 
 294   23:00   0.00   44.6    88    0.3   319     1.1   950.1    0.00 
 294   23:10   0.00   44.5    88    0.9   294     2.2   950.1    0.00 
 294   23:20   0.00   44.4    88    0.3   298     1.7   950.0    0.00 
 294   23:30   0.00   44.5    88    0.5   302     2.7   949.9    0.00 
 294   23:40   0.00   44.8    88    1.2   315     3.2   949.9    0.00 
 294   23:50   0.00   45.0    87    1.0    66     1.9   949.9    0.00 
 295    0:00   0.00   45.3    84    1.2    52     2.8   949.9    0.00 
 295    0:10   0.00   45.0    85    1.5   282     2.7   949.9    0.00 
 295    0:20   0.00   44.8    86    0.7   316     2.6   950.1    0.00 
 295    0:30   0.00   44.2    85    0.8    61     2.6   950.1    0.00 
 295    0:40   0.00   44.4    86    0.2   340     1.0   950.1    0.00 
 295    0:50   0.00   43.8    86    1.3   310     2.2   950.1    0.00 
 295    1:00   0.00   43.8    88    0.5    60     2.2   949.9    0.00 
 295    1:10   0.00   44.0    86    0.6   326     1.9   949.9    0.00 
 295    1:20   0.00   44.5    87    0.9   296     1.7   949.9    0.00 
 295    1:30   0.00   44.4    86    1.0   304     2.0   949.9    0.00 
 295    1:40   0.00   44.5    87    0.2   302     1.2   949.9    0.00 
 295    1:50   0.00   44.4    88    0.0     0     0.0   949.8    0.00 
 295    2:00   0.00   44.5    88    0.9   284     1.9   949.8    0.00 
 295    2:10   0.00   44.2    88    0.1   326     1.0   949.9    0.00 
 295    2:20   0.00   44.6    88    0.7   292     1.5   949.9    0.00 
 295    2:30   0.00   44.7    88    1.0    54     2.5   949.9    0.00 
 295    2:40   0.00   44.6    87    1.7    63     2.3   949.8    0.00 
 295    2:50   0.00   43.5    88    0.4    16     1.8   949.7    0.00 
 295    3:00   0.00   43.0    90    1.1   281     1.8   949.8    0.00 
 295    3:10   0.00   43.9    91    1.0   309     1.8   949.7    0.00 
 295    3:20   0.00   44.3    89    0.6   302     1.8   949.6    0.00 
 295    3:30   0.00   44.4    88    0.3     1     0.7   949.6    0.00 
 295    3:40   0.00   44.5    87    0.5   359     1.5   949.5    0.00 
 295    3:50   0.00   44.3    86    1.2   286     2.8   949.5    0.00 
 295    4:00   0.00   44.6    86    0.5   339     2.0   949.5    0.00 
 295    4:10   0.00   44.3    85    3.0   287     4.6   949.5    0.00 
 295    4:20   0.00   44.5    85    1.2   358     3.5   949.4    0.00 
 295    4:30   0.00   44.4    84    0.9    61     2.0   949.5    0.00 
 295    4:40   0.00   44.8    83    0.5   322     1.3   949.7    0.00 
 295    4:50   0.00   45.0    81    1.1    20     2.0   949.7    0.00 
 295    5:00   0.00   43.8    86    0.8   279     2.0   949.6    0.00 
 295    5:10   0.00   44.4    84    1.4   287     3.4   949.6    0.00 
 295    5:20   0.00   44.1    85    1.2    35     2.4   949.6    0.00 
 295    5:30   0.00   44.0    86    0.8    74     2.3   949.7    0.00 
 295    5:40   0.00   44.3    85    0.7   274     2.1   949.7    0.00 
 295    5:50   0.00   44.1    85    0.5    89     1.2   949.8    0.00 
 295    6:00   0.00   43.9    85    0.8   300     2.2   949.7    0.00 
 295    6:10   0.00   44.3    85    0.1   298     1.2   949.6    0.00 
 295    6:20   0.01   44.1    84    1.6   299     3.2   949.7    0.00 
 295    6:30   0.01   44.2    85    1.4    85     2.7   949.9    0.00 
 295    6:40   0.02   44.4    82    1.2    60     2.8   949.8    0.00 
 295    6:50   0.03   43.7    85    1.8   292     2.6   949.8    0.00 
 295    7:00   0.04   43.9    86    0.7   326     1.9   949.9    0.00 
 295    7:10   0.06   45.4    83    0.0     0     0.0   949.9    0.00 
 295    7:20   0.07   47.3    77    0.0   313     0.7   950.0    0.00 
 295    7:30   0.09   48.7    75    0.1    21     0.8   950.1    0.00 
 295    7:40   0.17   50.6    71    0.0     0     0.0   950.2    0.00 
 295    7:50   0.16   54.6    66    0.0     0     0.0   950.2    0.00 
 295    8:00   0.25   58.6    59    0.2   137     0.9   950.3    0.00 
 295    8:10   0.27   61.2    51    0.7   159     1.6   950.1    0.00 
 295    8:20   0.29   62.5    48    0.5   141     1.3   950.0    0.00 
 295    8:30   0.33   63.8    46    1.9   204     4.2   949.9    0.00 
 295    8:40   0.36   63.8    49    3.5   240     5.2   950.1    0.00 
 295    8:50   0.38   63.8    48    3.1   239     4.8   950.2    0.00 
 295    9:00   0.39   64.7    48    1.8   226     4.1   950.4    0.00 
 295    9:10   0.43   65.4    49    3.1   224     6.0   950.5    0.00 
 295    9:20   0.46   65.6    50    3.9   249     7.4   950.6    0.00 
 295    9:30   0.48   65.2    55    4.2   233     6.9   950.8    0.00 
 295    9:40   0.51   66.0    55    4.0   248     7.5   950.8    0.00 
 295    9:50   0.52   65.8    56    4.3   234     9.1   950.8    0.00 
 295   10:00   0.43   64.0    60    5.7   228     8.9   950.9    0.00 
 295   10:10   0.55   63.7    59    4.8   242     8.2   951.0    0.00 
 295   10:20   0.57   64.9    57    4.9   238     9.1   951.0    0.00 
 295   10:30   0.60   65.0    57    6.1   242     9.9   951.1    0.00 
 295   10:40   0.61   64.8    57    7.0   241    12.3   951.3    0.00 
 295   10:50   0.62   64.9    57    6.5   256    11.5   951.4    0.00 
 295   11:00   0.62   65.5    54    6.4   238    11.2   951.6    0.00 
 295   11:10   0.52   65.2    54    6.2   246    10.3   951.6    0.00 
 295   11:20   0.64   65.3    51    5.7   249     9.3   951.5    0.00 
 295   11:30   0.64   66.9    48    5.4   234     9.4   951.1    0.00 
 295   11:40   0.63   67.4    46    5.8   237     8.6   951.0    0.00 
 295   11:50   0.66   67.0    47    7.2   234    13.8   951.0    0.00 
 295   12:00   0.62   66.7    48    7.6   250    13.8   951.1    0.00 
 295   12:10   0.60   66.4    47    7.3   246    12.3   951.1    0.00 
 295   12:20   0.55   66.4    46    7.3   238    13.4   950.9    0.00 
 295   12:30   0.60   67.2    44    6.6   244    11.3   950.9    0.00 
 295   12:40   0.63   67.8    42    7.8   228    14.1   950.8    0.00 
 295   12:50   0.64   68.0    42    6.2   241    11.9   950.7    0.00 
 295   13:00   0.64   69.2    41    5.4   255    10.7   950.5    0.00 
 295   13:10   0.56   68.8    41    6.0   284    10.7   950.4    0.00 
 295   13:20   0.58   68.7    40    5.1   267     8.3   950.3    0.00 
 295   13:30   0.52   69.5    38    5.7   274     9.5   950.2    0.00 
 295   13:40   0.40   68.7    38    5.1   254     9.9   950.1    0.00 
 295   13:50   0.51   69.1    37    5.8   253    10.4   950.1    0.00 
 295   14:00   0.53   69.3    37    6.2   273    10.1   950.1    0.00 
 295   14:10   0.53   69.6    37    6.3   283     9.6   950.0    0.00 
 295   14:20   0.47   69.3    38    5.8   294     9.1   950.0    0.00 
 295   14:30   0.44   68.7    39    7.7   288    13.6   950.0    0.00 
 295   14:40   0.35   68.4    40    7.3   291    11.7   950.1    0.00 
 295   14:50   0.37   68.4    40    6.6   283     9.6   950.1    0.00 
 295   15:00   0.31   68.4    41    5.1   273     8.6   950.0    0.00 
 295   15:10   0.31   68.9    41    5.6   269     8.9   950.0    0.00 
 295   15:20   0.35   68.8    41    5.1   277     9.7   949.9    0.00 
 295   15:30   0.32   68.8    41    6.3   281    10.4   950.0    0.00 
 295   15:40   0.28   69.0    41    5.6   274     9.0   949.9    0.00 
 295   15:50   0.25   68.8    41    5.2   273     7.7   949.7    0.00 
 295   16:00   0.22   68.9    41    4.4   279     6.8   949.5    0.00 
 295   16:10   0.19   68.9    40    4.9   269     6.9   949.6    0.00 
 295   16:20   0.16   68.8    39    4.4   243     6.6   949.6    0.00 
 295   16:30   0.13   68.1    40    4.2   267     7.2   949.7    0.00 
 295   16:40   0.10   67.7    42    3.8   278     6.4   949.7    0.00 
 295   16:50   0.07   66.1    46    5.7   288     7.3   949.7    0.00 
 295   17:00   0.04   64.5    48    3.6   284     7.6   949.8    0.00 
 295   17:10   0.02   63.4    50    2.5   277     3.6   949.7    0.00 
 295   17:20   0.01   61.7    52    1.9   296     3.3   949.5    0.00 
 295   17:30   0.01   60.0    55    0.2   321     1.4   949.5    0.00 
 295   17:40   0.00   58.8    59    0.4   299     1.4   949.4    0.00 
 295   17:50   0.00   57.5    60    1.4    64     2.8   949.4    0.00 
 295   18:00   0.00   56.3    64    1.5    48     3.0   949.2    0.00 
 295   18:10   0.00   55.5    64    2.5   310     3.9   949.3    0.00 
 295   18:20   0.00   54.5    67    1.0    44     2.3   949.5    0.00 
 295   18:30   0.00   54.3    68    0.2    66     1.5   949.6    0.00 
 295   18:40   0.00   54.0    69    0.0   286     0.9   949.8    0.00 
 295   18:50   0.00   54.1    70    0.0     0     0.0   949.8    0.00 
 295   19:00   0.00   53.8    70    1.8   299     3.4   949.9    0.00 
 295   19:10   0.00   53.5    70    0.9    45     2.2   950.0    0.00 
 295   19:20   0.00   53.7    69    1.0    85     2.1   950.0    0.00 
 295   19:30   0.00   53.7    69    0.8   289     1.6   950.0    0.00 

Return to Blue Oak Ranch Reserve graphs page.


Western Regional Climate Center,wrcc@dri.edu